Etusivu
METAR-TAF:

METAR-TAF

Lentoasemat :

Abidjan, Norsunluurannikko

Port Bouetin lentoasema

Leveyspiiri: 05-15N, Pituuspiiri: 003-56W, korkeus merenpinnasta: 7 m

Tämänhetkinen sää

Tämä raportti tehtiin 24 minuuttia sitten, kello 21.30 UTC
Tuuli 3 kn etelästä/lounaasta
Lämpötila 28°C
Kosteus 79%
Ilmanpaine 1012 hPa
Näkyvyys: 3500 m
usvaa

METAR: DIAP 122130Z 21003KT 3500 HZ NSC 28/24 Q1012 NOSIG

Aika: 21:54 (21:54 UTC)

Sääennuste

Tämä raportti tehtiin 4 tuntia ja 54 minuuttia sitten, kello 17.00 UTC
Ennuste voimassa 12. päivästä klo 18 UTC - 13. päivään klo 24 UTC
Tuuli 5 kn etelästä/lounaasta
Näkyvyys: 3000 m
usvaa
Ajoittain
13. päivästä klo 05 UTC - 13. päivään klo 08 UTC
Näkyvyys: 2000 m
utua

TAF: DIAP 121700Z 1218/1324 20005KT 3000 HZ NSC TEMPO 1305/1308 2000 BR

Säähavainnot ja -ennusteet yli 4000 lentoasemalta (METAR- ja TAF-raportit).

Käytössä olevat sääasemat on merkitty karttaan keltaisilla ja punaisilla pisteillä.

Aseta hiiri pisteen päälle nähdäksesi sääaseman nimen.

Klikkaa sitten nähdäksesi säähavainnot ja -ennusteet.

Kartan vaihtaminen: klikkaa mustalla rastilla varustettuja vihreitä pisteitä, niin voit zoomata sisään; viivalla varustettua vihreää pistettä, niin voit zoomata ulos tai vihreitä nuolia, niin pääset viereisille kartoille.


METAR-TAF: